Time;durP1;ratioP1;P1;durP2;ratioP2;P2;SDS_P1;SDS_P2;PMS_P1;PMS_P2;Temp;Humidity;BMP_temperature;BMP_pressure;BME280_temperature;BME280_humidity;BME280_pressure;Samples;Min_cycle;Max_cycle;Signal;HPM_P1;HPM_P2
2023/09/17 00:06:10;;;;;;;17.50;14.60;;;;;;;;;;6248034;23;20418;-88
2023/09/17 00:15:56;;;;;;;18.60;15.33;;;16.90;1.00;;;;;;6254499;22;20421;-90
2023/09/17 00:22:03;;;;;;;17.50;14.50;;;;;;;;;;6245365;23;20524;-88
2023/09/17 00:24:50;;;;;;;17.87;16.00;;;;;;;;;;6344626;22;20498;-88
2023/09/17 00:31:37;;;;;;;;;;;;;;;;;;;;;
2023/09/17 00:53:16;;;;;;;15.77;14.17;;;16.60;99.90;;;;;;6230645;23;20415;-89
2023/09/17 00:59:14;;;;;;;14.33;12.77;;;;;;;;;;6350921;22;20430;-91
2023/09/17 01:01:51;;;;;;;16.37;13.17;;;16.60;99.90;;;;;;6356329;22;20421;-91
2023/09/17 01:09:50;;;;;;;16.60;13.80;;;;;;;;;;6342306;22;20475;-92
2023/09/17 01:12:43;;;;;;;15.90;14.07;;;16.50;99.90;;;;;;6348354;22;20512;-91
2023/09/17 01:15:29;;;;;;;17.10;13.20;;;;;;;;;;6345096;22;20411;-92
2023/09/17 01:21:24;;;;;;;14.70;12.40;;;16.50;99.90;;;;;;6315277;22;20445;-92
2023/09/17 01:24:17;;;;;;;14.50;12.90;;;16.50;99.90;;;;;;6349684;22;20387;-92
2023/09/17 01:27:12;;;;;;;17.10;13.47;;;16.50;99.90;;;;;;6346121;22;20424;-92
2023/09/17 01:29:49;;;;;;;15.57;13.70;;;;;;;;;;6345852;22;20459;-92
2023/09/17 01:32:17;;;;;;;15.23;13.63;;;;;;;;;;6346822;22;20410;-91
2023/09/17 01:34:52;;;;;;;16.50;13.73;;;;;;;;;;6358881;22;20407;-91
2023/09/17 01:37:41;;;;;;;20.00;16.50;;;16.40;99.90;;;;;;6346210;22;20449;-92
2023/09/17 01:40:23;;;;;;;15.70;14.00;;;16.30;99.90;;;;;;6346827;22;20407;-91
2023/09/17 01:43:00;;;;;;;15.33;13.90;;;16.30;99.90;;;;;;6361292;22;20391;-91
2023/09/17 01:48:29;;;;;;;15.10;13.60;;;;;;;;;;6362640;22;20411;-92
2023/09/17 01:51:02;;;;;;;13.77;12.50;;;;;;;;;;6368240;22;20398;-90
2023/09/17 01:53:37;;;;;;;16.23;14.53;;;;;;;;;;6363446;22;20413;-92
2023/09/17 01:56:17;;;;;;;15.40;13.90;;;;;;;;;;6355485;22;20394;-92
2023/09/17 01:58:57;;;;;;;14.90;13.50;;;;;;;;;;6348232;22;20912;-92
2023/09/17 02:01:27;;;;;;;15.17;13.67;;;;;;;;;;6358691;22;20432;-92
2023/09/17 02:03:57;;;;;;;16.07;14.50;;;;;;;;;;6347909;22;20410;-92
2023/09/17 02:06:28;;;;;;;16.43;14.47;;;;;;;;;;6347035;22;20391;-91
2023/09/17 02:11:51;;;;;;;18.40;13.93;;;;;;;;;;6346478;22;20430;-91
2023/09/17 02:14:30;;;;;;;16.20;14.27;;;;;;;;;;6360647;22;20390;-91
2023/09/17 02:17:08;;;;;;;16.47;14.50;;;;;;;;;;6368007;22;20410;-90
2023/09/17 02:19:37;;;;;;;15.23;13.73;;;;;;;;;;6367166;22;20425;-92
2023/09/17 02:22:13;;;;;;;15.20;13.60;;;;;;;;;;6352805;22;20411;-92
2023/09/17 02:24:40;;;;;;;15.53;13.90;;;;;;;;;;6345306;22;20428;-92
2023/09/17 02:27:16;;;;;;;16.73;15.07;;;;;;;;;;6345045;22;20768;-92
2023/09/17 02:29:52;;;;;;;15.50;13.90;;;;;;;;;;6344759;22;20444;-92
2023/09/17 02:32:21;;;;;;;14.90;13.33;;;;;;;;;;6346322;22;20374;-91
2023/09/17 02:37:35;;;;;;;14.67;13.27;;;;;;;;;;6341313;22;20434;-91
2023/09/17 02:40:08;;;;;;;15.60;14.00;;;;;;;;;;6344109;22;20402;-91
2023/09/17 02:42:49;;;;;;;17.00;15.20;;;;;;;;;;6345489;22;20473;-91
2023/09/17 02:45:27;;;;;;;14.13;12.83;;;;;;;;;;6345365;22;20402;-91
2023/09/17 02:47:56;;;;;;;15.70;14.20;;;;;;;;;;6343586;22;20418;-92
2023/09/17 02:50:31;;;;;;;14.87;13.37;;;;;;;;;;6342863;22;20511;-91
2023/09/17 02:53:14;;;;;;;15.83;13.90;;;;;;;;;;6342225;22;20727;-91
2023/09/17 02:55:50;;;;;;;15.17;13.67;;;;;;;;;;6357941;22;20402;-89
2023/09/17 02:58:26;;;;;;;16.33;14.63;;;;;;;;;;6367385;22;20461;-89
2023/09/17 03:04:25;;;;;;;;;;;;;;;;;;;;;
2023/09/17 03:07:04;;;;;;;18.03;13.60;;;;;;;;;;6343793;22;20442;-91
2023/09/17 03:09:46;;;;;;;14.17;12.67;;;;;;;;;;6343777;22;20442;-92
2023/09/17 03:20:52;;;;;;;16.10;14.40;;;;;;;;;;6337219;22;20370;-91
2023/09/17 03:23:37;;;;;;;15.50;13.70;;;;;;;;;;6345988;22;20402;-92
2023/09/17 03:26:26;;;;;;;15.00;13.60;;;;;;;;;;6354517;22;20395;-91
2023/09/17 03:31:55;;;;;;;15.93;13.83;;;;;;;;;;6362991;22;20387;-91
2023/09/17 03:34:39;;;;;;;15.37;13.70;;;;;;;;;;6366549;22;20412;-91
2023/09/17 03:37:20;;;;;;;15.67;14.07;;;;;;;;;;6352127;22;20505;-91
2023/09/17 03:42:35;;;;;;;18.37;14.73;;;;;;;;;;6352287;22;20398;-92
2023/09/17 03:45:14;;;;;;;14.63;13.23;;;;;;;;;;6344106;22;20406;-91
2023/09/17 03:47:48;;;;;;;19.50;14.00;;;;;;;;;;6344445;22;20959;-92
2023/09/17 03:50:39;;;;;;;;;;;;;;;;;;;;;
2023/09/17 03:53:23;;;;;;;17.00;13.07;;;;;;;;;;6343680;22;20434;-91
2023/09/17 03:55:58;;;;;;;18.37;14.83;;;;;;;;;;6343873;22;20409;-92
2023/09/17 03:58:39;;;;;;;18.63;14.43;;;;;;;;;;6342981;22;20429;-92
2023/09/17 04:01:13;;;;;;;15.40;13.90;;;;;;;;;;6343539;22;20406;-92
2023/09/17 04:03:52;;;;;;;17.97;14.63;;;;;;;;;;6343993;22;20401;-92
2023/09/17 04:06:30;;;;;;;15.57;12.80;;;;;;;;;;6344482;22;20407;-91
2023/09/17 04:11:39;;;;;;;16.23;14.70;;;;;;;;;;6349663;22;20417;-91
2023/09/17 04:17:04;;;;;;;16.63;14.90;;;;;;;;;;6332246;22;20461;-91
2023/09/17 04:19:44;;;;;;;16.70;14.33;;;;;;;;;;6348685;22;20402;-91
2023/09/17 04:22:19;;;;;;;15.30;13.90;;;;;;;;;;6352314;22;20405;-92
2023/09/17 04:24:58;;;;;;;15.27;13.33;;;;;;;;;;6361714;22;20428;-91
2023/09/17 04:27:38;;;;;;;15.27;12.77;;;;;;;;;;6366547;22;20410;-90
2023/09/17 04:30:14;;;;;;;15.70;13.27;;;;;;;;;;6353748;22;20429;-92
2023/09/17 04:32:58;;;;;;;14.30;13.00;;;15.50;99.90;;;;;;6357885;22;20394;-92
2023/09/17 04:35:35;;;;;;;15.80;12.73;;;;;;;;;;6363746;22;20450;-91
2023/09/17 04:38:18;;;;;;;19.00;14.33;;;;;;;;;;6360723;22;20436;-91
2023/09/17 04:47:15;;;;;;;16.10;14.57;;;15.40;99.90;;;;;;6291394;22;20457;-91
2023/09/17 04:50:07;;;;;;;14.67;13.17;;;;;;;;;;6308543;22;20437;-92
2023/09/17 04:52:41;;;;;;;16.20;14.27;;;;;;;;;;6349167;22;20486;-91
2023/09/17 04:55:17;;;;;;;17.87;16.13;;;;;;;;;;6363337;22;20413;-90
2023/09/17 04:57:55;;;;;;;15.63;14.00;;;;;;;;;;6368000;22;20517;-90
2023/09/17 05:00:36;;;;;;;14.93;13.03;;;;;;;;;;6368698;22;20394;-90
2023/09/17 05:03:10;;;;;;;15.57;13.73;;;;;;;;;;6356173;22;20399;-91
2023/09/17 05:05:53;;;;;;;15.30;13.70;;;;;;;;;;6366686;22;20398;-90
2023/09/17 05:08:30;;;;;;;15.63;13.80;;;;;;;;;;6368672;22;20450;-90
2023/09/17 05:11:23;;;;;;;15.23;13.83;;;;;;;;;;6368290;22;20422;-89
2023/09/17 05:13:56;;;;;;;17.90;16.00;;;;;;;;;;6368419;22;20409;-90
2023/09/17 05:16:25;;;;;;;15.83;14.13;;;;;;;;;;6368647;22;20402;-90
2023/09/17 05:19:01;;;;;;;14.57;13.17;;;;;;;;;;6368483;22;20387;-90
2023/09/17 05:21:36;;;;;;;16.73;14.30;;;;;;;;;;6360499;22;20410;-90
2023/09/17 05:24:10;;;;;;;15.77;14.10;;;;;;;;;;6361785;22;20386;-92
2023/09/17 05:26:48;;;;;;;16.93;14.87;;;15.50;99.90;;;;;;6348813;22;20425;-92
2023/09/17 05:29:23;;;;;;;16.00;14.40;;;;;;;;;;6347353;22;20454;-92
2023/09/17 05:31:50;;;;;;;16.27;14.60;;;;;;;;;;6347204;22;20367;-92
2023/09/17 05:34:25;;;;;;;16.37;14.70;;;;;;;;;;6346415;22;20391;-92
2023/09/17 05:37:02;;;;;;;17.20;14.57;;;;;;;;;;6346622;22;20437;-92
2023/09/17 05:39:42;;;;;;;15.77;14.07;;;;;;;;;;6347256;22;20968;-92
2023/09/17 05:42:38;;;;;;;16.50;14.77;;;15.80;99.90;;;;;;6363372;22;20390;-90
2023/09/17 05:45:20;;;;;;;19.40;14.10;;;;;;;;;;6363252;22;20399;-92
2023/09/17 05:47:58;;;;;;;14.83;13.27;;;15.80;99.90;;;;;;6362006;22;20420;-91
2023/09/17 05:50:36;;;;;;;14.37;13.07;;;;;;;;;;6359913;22;20486;-91
2023/09/17 05:53:05;;;;;;;15.20;13.60;;;;;;;;;;6347644;22;20394;-92
2023/09/17 05:58:32;;;;;;;15.70;13.40;;;;;;;;;;6359408;22;20464;-91
2023/09/17 06:01:04;;;;;;;16.17;14.50;;;;;;;;;;6358248;22;20926;-91
2023/09/17 06:03:35;;;;;;;18.50;14.50;;;;;;;;;;6350951;22;20407;-91
2023/09/17 06:06:44;;;;;;;15.70;13.87;;;16.20;99.90;;;;;;6352032;22;20410;-92
2023/09/17 06:09:22;;;;;;;14.40;12.90;;;;;;;;;;6316664;22;20418;-91
2023/09/17 06:15:52;;;;;;;16.63;14.93;;;16.40;99.90;;;;;;6313505;22;20406;-91
2023/09/17 06:18:42;;;;;;;14.93;13.40;;;16.50;99.90;;;;;;6351505;22;20431;-92
2023/09/17 06:21:20;;;;;;;17.10;15.27;;;;;;;;;;6353655;22;20707;-92
2023/09/17 06:26:43;;;;;;;16.70;15.03;;;;;;;;;;6350453;22;20383;-93
2023/09/17 06:32:28;;;;;;;17.63;15.80;;;16.70;99.90;;;;;;6351601;22;20395;-92
2023/09/17 06:37:58;;;;;;;16.50;14.77;;;;;;;;;;6357832;22;20418;-91
2023/09/17 06:43:23;;;;;;;15.67;14.07;;;;;;;;;;6359218;22;20489;-90
2023/09/17 06:45:58;;;;;;;18.47;14.97;;;;;;;;;;6367430;22;20388;-90
2023/09/17 06:48:52;;;;;;;18.30;15.73;;;17.00;99.90;;;;;;6367689;22;20414;-90
2023/09/17 06:51:41;;;;;;;15.00;13.40;;;17.10;99.90;;;;;;6365968;22;20483;-91
2023/09/17 06:54:15;;;;;;;17.70;14.50;;;;;;;;;;6341683;22;20395;-89
2023/09/17 07:09:03;;;;;;;;;;;;;;;;;;;;;
2023/09/17 07:22:32;;;;;;;13.30;12.00;;;18.00;1.00;;;;;;6248749;23;20478;-90
2023/09/17 07:25:55;;;;;;;13.47;12.17;;;18.10;3.00;;;;;;6169353;22;20404;-89
2023/09/17 07:28:42;;;;;;;14.23;12.03;;;;;;;;;;6113842;23;20499;-90
2023/09/17 07:31:35;;;;;;;14.90;13.40;;;18.30;99.90;;;;;;6249757;23;20458;-89
2023/09/17 07:51:12;;;;;;;13.83;12.53;;;19.00;1.00;;;;;;6335272;22;20519;-89
2023/09/17 08:19:43;;;;;;;14.97;13.47;;;19.70;1.00;;;;;;6224007;22;20410;-90
2023/09/17 11:04:51;;;;;;;9.40;7.50;;;23.50;1.00;;;;;;5924700;24;20411;-90
2023/09/17 14:08:34;;;;;;;7.17;6.57;;;;;;;;;;6289657;22;20458;-91
2023/09/17 14:18:52;;;;;;;5.60;5.20;;;25.10;1.00;;;;;;6193603;23;20434;-89
2023/09/17 14:36:19;;;;;;;6.10;5.60;;;;;;;;;;6073430;23;20391;-91
2023/09/17 14:48:27;;;;;;;6.90;6.30;;;;;;;;;;6333714;22;20457;-90
2023/09/17 14:51:03;;;;;;;6.40;5.90;;;;;;;;;;6353569;22;20432;-90
2023/09/17 15:04:24;;;;;;;7.23;6.53;;;25.00;1.00;;;;;;6225304;23;20931;-90
2023/09/17 16:14:43;;;;;;;;;;;;;;;;;;;;;
2023/09/17 18:04:45;;;;;;;11.20;10.20;;;22.10;99.90;;;;;;5860665;24;20413;-89
2023/09/17 19:23:07;;;;;;;16.93;15.23;;;21.20;1.00;;;;;;6135068;23;20715;-90
2023/09/17 19:29:57;;;;;;;16.07;14.43;;;22.50;1.00;;;;;;6190040;23;20407;-90
2023/09/17 19:32:56;;;;;;;16.63;13.60;;;;;;;;;;6191646;23;20515;-90
2023/09/17 19:39:03;;;;;;;;;;;;;;;;;;;;;
2023/09/17 19:41:40;;;;;;;16.47;14.20;;;;;;;;;;6320046;22;20443;-90
2023/09/17 19:44:26;;;;;;;13.17;11.97;;;;;;;;;;6326867;22;20396;-90
2023/09/17 20:06:35;;;;;;;16.43;14.80;;;;;;;;;;6358337;22;20439;-89
2023/09/17 20:12:14;;;;;;;16.13;13.50;;;;;;;;;;6353674;22;20402;-89
2023/09/17 20:21:26;;;;;;;;;;;;;;;;;;;;;
2023/09/17 20:45:32;;;;;;;18.60;15.57;;;20.30;99.90;;;;;;6204334;23;20351;-89
2023/09/17 21:16:52;;;;;;;;;;;;;;;;;;;;;
2023/09/17 21:22:58;;;;;;;15.87;13.30;;;;;;;;;;6192998;23;20378;-89
2023/09/17 21:54:36;;;;;;;16.53;14.80;;;;;;;;;;6018599;23;20472;-88
2023/09/17 21:57:16;;;;;;;14.23;12.90;;;19.40;99.90;;;;;;6247641;22;20427;-88
2023/09/17 21:59:44;;;;;;;14.97;13.57;;;;;;;;;;6323797;22;20705;-89
2023/09/17 22:02:11;;;;;;;15.27;13.77;;;;;;;;;;6324390;22;20403;-89
2023/09/17 22:04:38;;;;;;;14.00;12.60;;;;;;;;;;6330593;22;20415;-90
2023/09/17 22:07:08;;;;;;;15.20;13.70;;;;;;;;;;6334239;22;20435;-88
2023/09/17 22:09:40;;;;;;;14.90;13.40;;;19.20;91.90;;;;;;6335755;22;20455;-91
2023/09/17 22:12:10;;;;;;;14.60;13.20;;;;;;;;;;6335035;22;20411;-88
2023/09/17 22:14:39;;;;;;;15.13;13.67;;;;;;;;;;6334456;22;20432;-89
2023/09/17 22:17:16;;;;;;;14.03;12.53;;;;;;;;;;6336015;22;20426;-88
2023/09/17 22:19:48;;;;;;;18.80;15.10;;;;;;;;;;6335222;22;20412;-89
2023/09/17 22:22:15;;;;;;;16.57;14.80;;;;;;;;;;6331182;22;20384;-89
2023/09/17 22:24:44;;;;;;;23.60;18.80;;;;;;;;;;6323441;22;20400;-88
2023/09/17 22:27:14;;;;;;;15.77;14.37;;;;;;;;;;6327107;22;20415;-89
2023/09/17 22:29:41;;;;;;;16.60;14.93;;;;;;;;;;6326432;22;20442;-89
2023/09/17 22:32:08;;;;;;;17.27;15.57;;;;;;;;;;6335031;22;20395;-87
2023/09/17 22:34:35;;;;;;;16.83;15.07;;;;;;;;;;6329279;22;20432;-88
2023/09/17 22:37:02;;;;;;;20.43;17.37;;;;;;;;;;6323793;22;20415;-87
2023/09/17 22:39:32;;;;;;;17.00;14.60;;;19.20;30.00;;;;;;6324460;22;20416;-89
2023/09/17 22:42:00;;;;;;;27.03;22.50;;;;;;;;;;6325311;22;20399;-88
2023/09/17 22:44:28;;;;;;;24.17;19.13;;;;;;;;;;6324920;22;20422;-88
2023/09/17 22:46:55;;;;;;;19.80;15.37;;;;;;;;;;6321102;22;20407;-89
2023/09/17 22:49:23;;;;;;;18.00;16.03;;;;;;;;;;6322681;22;20442;-88
2023/09/17 22:51:50;;;;;;;15.07;13.50;;;;;;;;;;6323153;22;20400;-90
2023/09/17 22:54:17;;;;;;;35.93;18.60;;;19.10;1.00;;;;;;6319407;22;20522;-88
2023/09/17 22:56:44;;;;;;;16.67;15.07;;;;;;;;;;6327349;22;20399;-87
2023/09/17 22:59:14;;;;;;;20.67;18.43;;;19.10;1.00;;;;;;6328813;22;20399;-88
2023/09/17 23:01:41;;;;;;;16.23;14.77;;;;;;;;;;6332590;22;20417;-86
2023/09/17 23:04:10;;;;;;;15.77;14.10;;;18.90;1.00;;;;;;6333746;22;20399;-88
2023/09/17 23:06:38;;;;;;;15.73;14.23;;;;;;;;;;6320779;22;20410;-88
2023/09/17 23:09:06;;;;;;;15.63;14.00;;;;;;;;;;6329144;22;20426;-86
2023/09/17 23:11:34;;;;;;;15.13;13.77;;;;;;;;;;6336511;22;20415;-87
2023/09/17 23:14:05;;;;;;;15.20;13.70;;;;;;;;;;6328064;22;20474;-87
2023/09/17 23:16:34;;;;;;;15.60;14.07;;;;;;;;;;6321411;22;20428;-87
2023/09/17 23:19:05;;;;;;;15.63;14.03;;;;;;;;;;6319791;22;20428;-88
2023/09/17 23:21:37;;;;;;;18.23;16.53;;;;;;;;;;6317914;22;20412;-86
2023/09/17 23:24:05;;;;;;;16.67;14.70;;;18.70;1.00;;;;;;6325660;22;20410;-88
2023/09/17 23:26:33;;;;;;;15.80;14.20;;;;;;;;;;6326812;22;20390;-88
2023/09/17 23:29:05;;;;;;;13.80;12.47;;;;;;;;;;6335599;22;20449;-87
2023/09/17 23:31:37;;;;;;;13.87;12.70;;;;;;;;;;6332637;22;20455;-88
2023/09/17 23:34:04;;;;;;;15.73;14.00;;;;;;;;;;6328027;22;20427;-89
2023/09/17 23:36:33;;;;;;;16.00;14.40;;;;;;;;;;6329441;22;20399;-88
2023/09/17 23:39:03;;;;;;;15.10;13.57;;;;;;;;;;6324100;22;20419;-88
2023/09/17 23:41:30;;;;;;;15.20;13.80;;;;;;;;;;6322007;22;20422;-89
2023/09/17 23:44:03;;;;;;;16.00;14.50;;;18.60;1.00;;;;;;6325858;22;20421;-88
2023/09/17 23:46:33;;;;;;;15.87;14.43;;;;;;;;;;6328626;22;20417;-88
2023/09/17 23:49:03;;;;;;;16.33;14.73;;;18.70;1.00;;;;;;6331051;22;20415;-86
2023/09/17 23:51:30;;;;;;;14.23;12.83;;;;;;;;;;6323285;22;20411;-89
2023/09/17 23:54:00;;;;;;;15.37;13.93;;;;;;;;;;6319282;22;20439;-89
2023/09/17 23:56:27;;;;;;;13.97;12.67;;;;;;;;;;6323339;22;20454;-87
2023/09/17 23:58:54;;;;;;;13.63;12.33;;;;;;;;;;6325729;22;20456;-89
